sensor_id;sensor_type;location;lat;lon;timestamp;P1;durP1;ratioP1;P2;durP2;ratioP2
14030;SDS011;7090;49.436;8.490;2024-01-27T00:01:35;12.77;;;12.07;;
14030;SDS011;7090;49.436;8.490;2024-01-27T00:04:01;11.43;;;10.93;;
14030;SDS011;7090;49.436;8.490;2024-01-27T00:06:27;12.33;;;11.63;;
14030;SDS011;7090;49.436;8.490;2024-01-27T00:08:52;12.70;;;12.00;;
14030;SDS011;7090;49.436;8.490;2024-01-27T00:11:18;13.70;;;12.90;;
14030;SDS011;7090;49.436;8.490;2024-01-27T00:13:44;11.50;;;11.00;;
14030;SDS011;7090;49.436;8.490;2024-01-27T00:16:10;11.33;;;10.93;;
14030;SDS011;7090;49.436;8.490;2024-01-27T00:18:36;13.53;;;12.40;;
14030;SDS011;7090;49.436;8.490;2024-01-27T00:21:02;12.27;;;11.67;;
14030;SDS011;7090;49.436;8.490;2024-01-27T00:23:29;12.50;;;12.00;;
14030;SDS011;7090;49.436;8.490;2024-01-27T00:25:54;12.23;;;11.73;;
14030;SDS011;7090;49.436;8.490;2024-01-27T00:28:20;13.63;;;12.70;;
14030;SDS011;7090;49.436;8.490;2024-01-27T00:30:46;13.27;;;12.67;;
14030;SDS011;7090;49.436;8.490;2024-01-27T00:33:11;12.53;;;11.93;;
14030;SDS011;7090;49.436;8.490;2024-01-27T00:35:37;11.97;;;11.47;;
14030;SDS011;7090;49.436;8.490;2024-01-27T00:38:02;11.70;;;11.30;;
14030;SDS011;7090;49.436;8.490;2024-01-27T00:40:28;11.33;;;10.93;;
14030;SDS011;7090;49.436;8.490;2024-01-27T00:42:54;11.83;;;11.33;;
14030;SDS011;7090;49.436;8.490;2024-01-27T00:45:19;12.80;;;11.73;;
14030;SDS011;7090;49.436;8.490;2024-01-27T00:47:47;12.10;;;11.60;;
14030;SDS011;7090;49.436;8.490;2024-01-27T00:50:16;11.73;;;11.33;;
14030;SDS011;7090;49.436;8.490;2024-01-27T00:52:42;12.07;;;11.57;;
14030;SDS011;7090;49.436;8.490;2024-01-27T00:55:08;12.37;;;11.53;;
14030;SDS011;7090;49.436;8.490;2024-01-27T00:57:35;12.13;;;11.63;;
14030;SDS011;7090;49.436;8.490;2024-01-27T01:00:02;11.90;;;11.40;;
14030;SDS011;7090;49.436;8.490;2024-01-27T01:02:29;12.33;;;11.83;;
14030;SDS011;7090;49.436;8.490;2024-01-27T01:04:55;11.53;;;11.13;;
14030;SDS011;7090;49.436;8.490;2024-01-27T01:07:20;12.10;;;11.60;;
14030;SDS011;7090;49.436;8.490;2024-01-27T01:09:46;13.50;;;12.90;;
14030;SDS011;7090;49.436;8.490;2024-01-27T01:12:11;12.07;;;11.57;;
14030;SDS011;7090;49.436;8.490;2024-01-27T01:14:37;12.80;;;12.27;;
14030;SDS011;7090;49.436;8.490;2024-01-27T01:17:03;13.27;;;12.77;;
14030;SDS011;7090;49.436;8.490;2024-01-27T01:19:29;12.90;;;12.40;;
14030;SDS011;7090;49.436;8.490;2024-01-27T01:21:55;12.37;;;11.87;;
14030;SDS011;7090;49.436;8.490;2024-01-27T01:24:21;12.80;;;12.30;;
14030;SDS011;7090;49.436;8.490;2024-01-27T01:26:46;13.07;;;12.57;;
14030;SDS011;7090;49.436;8.490;2024-01-27T01:29:12;14.43;;;13.63;;
14030;SDS011;7090;49.436;8.490;2024-01-27T01:31:37;13.00;;;12.50;;
14030;SDS011;7090;49.436;8.490;2024-01-27T01:34:03;12.30;;;11.70;;
14030;SDS011;7090;49.436;8.490;2024-01-27T01:36:28;12.20;;;11.60;;
14030;SDS011;7090;49.436;8.490;2024-01-27T01:38:54;11.67;;;11.23;;
14030;SDS011;7090;49.436;8.490;2024-01-27T01:41:20;11.30;;;10.90;;
14030;SDS011;7090;49.436;8.490;2024-01-27T01:43:45;11.90;;;11.40;;
14030;SDS011;7090;49.436;8.490;2024-01-27T01:46:11;11.40;;;11.00;;
14030;SDS011;7090;49.436;8.490;2024-01-27T01:48:36;11.90;;;11.40;;
14030;SDS011;7090;49.436;8.490;2024-01-27T01:51:02;11.63;;;11.13;;
14030;SDS011;7090;49.436;8.490;2024-01-27T01:53:28;12.00;;;11.50;;
14030;SDS011;7090;49.436;8.490;2024-01-27T01:55:53;12.10;;;11.60;;
14030;SDS011;7090;49.436;8.490;2024-01-27T01:58:20;11.83;;;11.33;;
14030;SDS011;7090;49.436;8.490;2024-01-27T02:00:45;12.27;;;11.77;;
14030;SDS011;7090;49.436;8.490;2024-01-27T02:03:12;12.70;;;12.20;;
14030;SDS011;7090;49.436;8.490;2024-01-27T02:05:38;12.73;;;12.23;;
14030;SDS011;7090;49.436;8.490;2024-01-27T02:08:04;12.57;;;12.07;;
14030;SDS011;7090;49.436;8.490;2024-01-27T02:10:30;12.50;;;12.00;;
14030;SDS011;7090;49.436;8.490;2024-01-27T02:13:02;12.53;;;12.03;;
14030;SDS011;7090;49.436;8.490;2024-01-27T02:15:48;12.90;;;12.40;;
14030;SDS011;7090;49.436;8.490;2024-01-27T02:18:15;13.23;;;12.67;;
14030;SDS011;7090;49.436;8.490;2024-01-27T02:20:42;14.53;;;13.60;;
14030;SDS011;7090;49.436;8.490;2024-01-27T02:23:08;12.20;;;11.70;;
14030;SDS011;7090;49.436;8.490;2024-01-27T02:25:34;12.20;;;11.70;;
14030;SDS011;7090;49.436;8.490;2024-01-27T02:28:00;11.33;;;10.90;;
14030;SDS011;7090;49.436;8.490;2024-01-27T02:30:27;12.50;;;11.90;;
14030;SDS011;7090;49.436;8.490;2024-01-27T02:32:53;12.13;;;11.53;;
14030;SDS011;7090;49.436;8.490;2024-01-27T02:35:20;11.33;;;10.93;;
14030;SDS011;7090;49.436;8.490;2024-01-27T02:37:45;11.83;;;11.33;;
14030;SDS011;7090;49.436;8.490;2024-01-27T02:40:11;11.90;;;11.40;;
14030;SDS011;7090;49.436;8.490;2024-01-27T02:42:37;11.83;;;11.33;;
14030;SDS011;7090;49.436;8.490;2024-01-27T02:45:03;13.37;;;11.77;;
14030;SDS011;7090;49.436;8.490;2024-01-27T02:47:29;12.40;;;11.80;;
14030;SDS011;7090;49.436;8.490;2024-01-27T02:49:55;11.33;;;10.83;;
14030;SDS011;7090;49.436;8.490;2024-01-27T02:52:21;12.00;;;11.33;;
14030;SDS011;7090;49.436;8.490;2024-01-27T02:54:46;11.83;;;11.33;;
14030;SDS011;7090;49.436;8.490;2024-01-27T02:57:13;11.60;;;11.10;;
14030;SDS011;7090;49.436;8.490;2024-01-27T02:59:40;11.40;;;10.90;;
14030;SDS011;7090;49.436;8.490;2024-01-27T03:02:06;11.43;;;10.93;;
14030;SDS011;7090;49.436;8.490;2024-01-27T03:04:31;12.13;;;11.53;;
14030;SDS011;7090;49.436;8.490;2024-01-27T03:06:57;11.03;;;10.53;;
14030;SDS011;7090;49.436;8.490;2024-01-27T03:09:22;10.40;;;10.00;;
14030;SDS011;7090;49.436;8.490;2024-01-27T03:11:48;11.60;;;11.10;;
14030;SDS011;7090;49.436;8.490;2024-01-27T03:14:14;13.70;;;12.77;;
14030;SDS011;7090;49.436;8.490;2024-01-27T03:16:39;11.13;;;10.60;;
14030;SDS011;7090;49.436;8.490;2024-01-27T03:19:05;11.43;;;10.87;;
14030;SDS011;7090;49.436;8.490;2024-01-27T03:21:31;9.80;;;9.40;;
14030;SDS011;7090;49.436;8.490;2024-01-27T03:23:57;9.73;;;9.33;;
14030;SDS011;7090;49.436;8.490;2024-01-27T03:26:23;9.97;;;9.57;;
14030;SDS011;7090;49.436;8.490;2024-01-27T03:28:49;10.27;;;9.87;;
14030;SDS011;7090;49.436;8.490;2024-01-27T03:31:15;9.97;;;9.57;;
14030;SDS011;7090;49.436;8.490;2024-01-27T03:33:41;10.60;;;10.20;;
14030;SDS011;7090;49.436;8.490;2024-01-27T03:36:10;10.70;;;10.30;;
14030;SDS011;7090;49.436;8.490;2024-01-27T03:38:36;11.83;;;11.13;;
14030;SDS011;7090;49.436;8.490;2024-01-27T03:41:02;10.80;;;10.40;;
14030;SDS011;7090;49.436;8.490;2024-01-27T03:43:28;12.53;;;11.93;;
14030;SDS011;7090;49.436;8.490;2024-01-27T03:45:55;12.07;;;11.47;;
14030;SDS011;7090;49.436;8.490;2024-01-27T03:48:21;10.47;;;10.07;;
14030;SDS011;7090;49.436;8.490;2024-01-27T03:50:46;10.70;;;10.30;;
14030;SDS011;7090;49.436;8.490;2024-01-27T03:53:12;11.00;;;10.53;;
14030;SDS011;7090;49.436;8.490;2024-01-27T03:55:37;11.60;;;11.10;;
14030;SDS011;7090;49.436;8.490;2024-01-27T03:58:03;11.10;;;10.60;;
14030;SDS011;7090;49.436;8.490;2024-01-27T04:00:29;10.90;;;10.50;;
14030;SDS011;7090;49.436;8.490;2024-01-27T04:02:57;10.83;;;10.43;;
14030;SDS011;7090;49.436;8.490;2024-01-27T04:05:23;11.87;;;11.37;;
14030;SDS011;7090;49.436;8.490;2024-01-27T04:07:49;11.70;;;11.20;;
14030;SDS011;7090;49.436;8.490;2024-01-27T04:10:16;11.03;;;10.63;;
14030;SDS011;7090;49.436;8.490;2024-01-27T04:12:42;10.40;;;10.00;;
14030;SDS011;7090;49.436;8.490;2024-01-27T04:15:08;11.10;;;10.70;;
14030;SDS011;7090;49.436;8.490;2024-01-27T04:17:35;10.63;;;10.23;;
14030;SDS011;7090;49.436;8.490;2024-01-27T04:20:00;10.60;;;10.20;;
14030;SDS011;7090;49.436;8.490;2024-01-27T04:22:26;11.27;;;10.77;;
14030;SDS011;7090;49.436;8.490;2024-01-27T04:24:52;10.60;;;10.20;;
14030;SDS011;7090;49.436;8.490;2024-01-27T04:27:17;11.20;;;10.70;;
14030;SDS011;7090;49.436;8.490;2024-01-27T04:29:43;11.83;;;11.33;;
14030;SDS011;7090;49.436;8.490;2024-01-27T04:32:09;11.00;;;10.50;;
14030;SDS011;7090;49.436;8.490;2024-01-27T04:34:35;10.37;;;9.97;;
14030;SDS011;7090;49.436;8.490;2024-01-27T04:37:00;10.73;;;10.23;;
14030;SDS011;7090;49.436;8.490;2024-01-27T04:39:26;10.00;;;9.60;;
14030;SDS011;7090;49.436;8.490;2024-01-27T04:41:52;9.80;;;9.40;;
14030;SDS011;7090;49.436;8.490;2024-01-27T04:44:17;10.10;;;9.70;;
14030;SDS011;7090;49.436;8.490;2024-01-27T04:46:45;10.03;;;9.63;;
14030;SDS011;7090;49.436;8.490;2024-01-27T04:49:11;10.03;;;9.63;;
14030;SDS011;7090;49.436;8.490;2024-01-27T04:51:36;10.57;;;10.17;;
14030;SDS011;7090;49.436;8.490;2024-01-27T04:54:02;11.47;;;10.97;;
14030;SDS011;7090;49.436;8.490;2024-01-27T04:56:28;10.37;;;9.97;;
14030;SDS011;7090;49.436;8.490;2024-01-27T04:58:53;10.17;;;9.77;;
14030;SDS011;7090;49.436;8.490;2024-01-27T05:01:19;10.57;;;10.07;;
14030;SDS011;7090;49.436;8.490;2024-01-27T05:03:44;10.47;;;10.07;;
14030;SDS011;7090;49.436;8.490;2024-01-27T05:06:10;9.50;;;9.10;;
14030;SDS011;7090;49.436;8.490;2024-01-27T05:08:36;10.60;;;10.20;;
14030;SDS011;7090;49.436;8.490;2024-01-27T05:11:02;9.90;;;9.50;;
14030;SDS011;7090;49.436;8.490;2024-01-27T05:13:27;11.47;;;10.67;;
14030;SDS011;7090;49.436;8.490;2024-01-27T05:15:53;8.93;;;8.63;;
14030;SDS011;7090;49.436;8.490;2024-01-27T05:18:19;8.53;;;8.23;;
14030;SDS011;7090;49.436;8.490;2024-01-27T05:20:44;8.93;;;8.63;;
14030;SDS011;7090;49.436;8.490;2024-01-27T05:23:10;9.23;;;8.83;;
14030;SDS011;7090;49.436;8.490;2024-01-27T05:25:35;9.17;;;8.77;;
14030;SDS011;7090;49.436;8.490;2024-01-27T05:28:01;8.97;;;8.57;;
14030;SDS011;7090;49.436;8.490;2024-01-27T05:30:27;9.90;;;9.40;;
14030;SDS011;7090;49.436;8.490;2024-01-27T05:32:52;8.47;;;8.17;;
14030;SDS011;7090;49.436;8.490;2024-01-27T05:35:18;10.43;;;9.83;;
14030;SDS011;7090;49.436;8.490;2024-01-27T05:37:44;8.20;;;7.90;;
14030;SDS011;7090;49.436;8.490;2024-01-27T05:40:09;15.70;;;10.90;;
14030;SDS011;7090;49.436;8.490;2024-01-27T05:42:36;12.50;;;11.60;;
14030;SDS011;7090;49.436;8.490;2024-01-27T05:45:01;7.60;;;7.30;;
14030;SDS011;7090;49.436;8.490;2024-01-27T05:47:27;7.73;;;7.43;;
14030;SDS011;7090;49.436;8.490;2024-01-27T05:49:53;8.53;;;8.07;;
14030;SDS011;7090;49.436;8.490;2024-01-27T05:52:18;12.60;;;11.53;;
14030;SDS011;7090;49.436;8.490;2024-01-27T05:54:44;11.90;;;10.90;;
14030;SDS011;7090;49.436;8.490;2024-01-27T05:57:09;8.23;;;7.83;;
14030;SDS011;7090;49.436;8.490;2024-01-27T05:59:35;8.07;;;7.67;;
14030;SDS011;7090;49.436;8.490;2024-01-27T06:02:00;6.70;;;6.50;;
14030;SDS011;7090;49.436;8.490;2024-01-27T06:04:26;6.10;;;5.90;;
14030;SDS011;7090;49.436;8.490;2024-01-27T06:06:52;8.97;;;8.33;;
14030;SDS011;7090;49.436;8.490;2024-01-27T06:09:18;7.43;;;7.03;;
14030;SDS011;7090;49.436;8.490;2024-01-27T06:11:43;8.47;;;7.87;;
14030;SDS011;7090;49.436;8.490;2024-01-27T06:14:09;10.47;;;6.57;;
14030;SDS011;7090;49.436;8.490;2024-01-27T06:16:34;19.13;;;8.10;;
14030;SDS011;7090;49.436;8.490;2024-01-27T06:19:00;5.40;;;5.20;;
14030;SDS011;7090;49.436;8.490;2024-01-27T06:21:26;5.63;;;5.43;;
14030;SDS011;7090;49.436;8.490;2024-01-27T06:23:52;7.63;;;7.13;;
14030;SDS011;7090;49.436;8.490;2024-01-27T06:26:17;6.10;;;5.90;;
14030;SDS011;7090;49.436;8.490;2024-01-27T06:28:43;6.10;;;5.90;;
14030;SDS011;7090;49.436;8.490;2024-01-27T06:31:09;5.53;;;5.33;;
14030;SDS011;7090;49.436;8.490;2024-01-27T06:33:34;5.63;;;5.43;;
14030;SDS011;7090;49.436;8.490;2024-01-27T06:36:00;4.80;;;4.70;;
14030;SDS011;7090;49.436;8.490;2024-01-27T06:38:26;4.80;;;4.70;;
14030;SDS011;7090;49.436;8.490;2024-01-27T06:40:52;5.10;;;4.90;;
14030;SDS011;7090;49.436;8.490;2024-01-27T06:43:18;5.33;;;5.13;;
14030;SDS011;7090;49.436;8.490;2024-01-27T06:45:44;5.40;;;5.20;;
14030;SDS011;7090;49.436;8.490;2024-01-27T06:48:10;5.33;;;5.13;;
14030;SDS011;7090;49.436;8.490;2024-01-27T06:50:35;5.17;;;4.97;;
14030;SDS011;7090;49.436;8.490;2024-01-27T06:53:01;5.70;;;5.50;;
14030;SDS011;7090;49.436;8.490;2024-01-27T06:55:27;5.87;;;5.63;;
14030;SDS011;7090;49.436;8.490;2024-01-27T06:57:53;6.73;;;5.67;;
14030;SDS011;7090;49.436;8.490;2024-01-27T07:00:18;5.70;;;5.50;;
14030;SDS011;7090;49.436;8.490;2024-01-27T07:02:44;5.80;;;5.60;;
14030;SDS011;7090;49.436;8.490;2024-01-27T07:05:10;5.67;;;5.47;;
14030;SDS011;7090;49.436;8.490;2024-01-27T07:07:37;5.93;;;5.73;;
14030;SDS011;7090;49.436;8.490;2024-01-27T07:10:03;8.17;;;7.67;;
14030;SDS011;7090;49.436;8.490;2024-01-27T07:12:28;6.17;;;5.87;;
14030;SDS011;7090;49.436;8.490;2024-01-27T07:14:54;5.80;;;5.60;;
14030;SDS011;7090;49.436;8.490;2024-01-27T07:17:20;5.70;;;5.50;;
14030;SDS011;7090;49.436;8.490;2024-01-27T07:19:46;6.18;;;5.97;;
14030;SDS011;7090;49.436;8.490;2024-01-27T07:22:11;6.00;;;5.80;;
14030;SDS011;7090;49.436;8.490;2024-01-27T07:24:37;6.67;;;6.37;;
14030;SDS011;7090;49.436;8.490;2024-01-27T07:27:04;6.77;;;6.47;;
14030;SDS011;7090;49.436;8.490;2024-01-27T07:29:30;6.40;;;6.20;;
14030;SDS011;7090;49.436;8.490;2024-01-27T07:31:56;6.33;;;6.13;;
14030;SDS011;7090;49.436;8.490;2024-01-27T07:34:21;6.30;;;6.10;;
14030;SDS011;7090;49.436;8.490;2024-01-27T07:36:47;6.60;;;6.40;;
14030;SDS011;7090;49.436;8.490;2024-01-27T07:39:15;7.27;;;6.97;;
14030;SDS011;7090;49.436;8.490;2024-01-27T07:41:41;7.40;;;7.10;;
14030;SDS011;7090;49.436;8.490;2024-01-27T07:44:08;7.40;;;7.10;;
14030;SDS011;7090;49.436;8.490;2024-01-27T07:46:35;7.60;;;7.30;;
14030;SDS011;7090;49.436;8.490;2024-01-27T07:49:01;7.80;;;7.50;;
14030;SDS011;7090;49.436;8.490;2024-01-27T07:51:28;7.60;;;7.30;;
14030;SDS011;7090;49.436;8.490;2024-01-27T07:53:53;7.80;;;7.50;;
14030;SDS011;7090;49.436;8.490;2024-01-27T07:56:19;7.80;;;7.50;;
14030;SDS011;7090;49.436;8.490;2024-01-27T07:58:45;9.00;;;8.60;;
14030;SDS011;7090;49.436;8.490;2024-01-27T08:01:13;8.30;;;8.00;;
14030;SDS011;7090;49.436;8.490;2024-01-27T08:03:40;8.63;;;8.23;;
14030;SDS011;7090;49.436;8.490;2024-01-27T08:06:06;9.30;;;8.90;;
14030;SDS011;7090;49.436;8.490;2024-01-27T08:08:36;9.30;;;8.90;;
14030;SDS011;7090;49.436;8.490;2024-01-27T08:11:01;9.93;;;9.43;;
14030;SDS011;7090;49.436;8.490;2024-01-27T08:13:27;14.23;;;11.77;;
14030;SDS011;7090;49.436;8.490;2024-01-27T08:15:53;12.33;;;11.53;;
14030;SDS011;7090;49.436;8.490;2024-01-27T08:18:18;14.43;;;13.23;;
14030;SDS011;7090;49.436;8.490;2024-01-27T08:20:44;14.70;;;13.73;;
14030;SDS011;7090;49.436;8.490;2024-01-27T08:23:09;12.30;;;11.43;;
14030;SDS011;7090;49.436;8.490;2024-01-27T08:25:36;12.65;;;11.70;;
14030;SDS011;7090;49.436;8.490;2024-01-27T08:28:01;11.30;;;10.50;;
14030;SDS011;7090;49.436;8.490;2024-01-27T08:30:28;12.20;;;11.40;;
14030;SDS011;7090;49.436;8.490;2024-01-27T08:32:54;14.47;;;12.70;;
14030;SDS011;7090;49.436;8.490;2024-01-27T08:35:19;11.13;;;10.63;;
14030;SDS011;7090;49.436;8.490;2024-01-27T08:37:45;10.03;;;9.63;;
14030;SDS011;7090;49.436;8.490;2024-01-27T08:40:10;10.70;;;10.00;;
14030;SDS011;7090;49.436;8.490;2024-01-27T08:42:37;11.73;;;10.90;;
14030;SDS011;7090;49.436;8.490;2024-01-27T08:45:02;12.07;;;10.97;;
14030;SDS011;7090;49.436;8.490;2024-01-27T08:47:28;13.70;;;12.30;;
14030;SDS011;7090;49.436;8.490;2024-01-27T08:49:54;11.00;;;10.37;;
14030;SDS011;7090;49.436;8.490;2024-01-27T08:52:19;13.17;;;12.03;;
14030;SDS011;7090;49.436;8.490;2024-01-27T08:54:45;14.27;;;12.97;;
14030;SDS011;7090;49.436;8.490;2024-01-27T08:57:10;10.27;;;9.47;;
14030;SDS011;7090;49.436;8.490;2024-01-27T08:59:36;13.70;;;12.50;;
14030;SDS011;7090;49.436;8.490;2024-01-27T09:02:02;10.53;;;9.83;;
14030;SDS011;7090;49.436;8.490;2024-01-27T09:04:27;10.93;;;10.23;;
14030;SDS011;7090;49.436;8.490;2024-01-27T09:06:53;11.53;;;10.50;;
14030;SDS011;7090;49.436;8.490;2024-01-27T09:09:19;12.83;;;11.70;;
14030;SDS011;7090;49.436;8.490;2024-01-27T09:11:44;8.87;;;8.47;;
14030;SDS011;7090;49.436;8.490;2024-01-27T09:14:11;10.63;;;9.93;;
14030;SDS011;7090;49.436;8.490;2024-01-27T09:16:36;25.63;;;12.90;;
14030;SDS011;7090;49.436;8.490;2024-01-27T09:19:02;11.57;;;10.53;;
14030;SDS011;7090;49.436;8.490;2024-01-27T09:21:27;8.50;;;8.00;;
14030;SDS011;7090;49.436;8.490;2024-01-27T09:23:55;9.13;;;8.70;;
14030;SDS011;7090;49.436;8.490;2024-01-27T09:26:21;10.67;;;9.87;;
14030;SDS011;7090;49.436;8.490;2024-01-27T09:28:48;11.47;;;10.37;;
14030;SDS011;7090;49.436;8.490;2024-01-27T09:31:20;10.68;;;9.82;;
14030;SDS011;7090;49.436;8.490;2024-01-27T09:33:52;11.20;;;10.40;;
14030;SDS011;7090;49.436;8.490;2024-01-27T09:36:19;11.10;;;10.00;;
14030;SDS011;7090;49.436;8.490;2024-01-27T09:38:44;9.87;;;8.63;;
14030;SDS011;7090;49.436;8.490;2024-01-27T09:41:13;9.23;;;8.60;;
14030;SDS011;7090;49.436;8.490;2024-01-27T09:43:42;8.17;;;7.77;;
14030;SDS011;7090;49.436;8.490;2024-01-27T09:46:13;8.52;;;8.02;;
14030;SDS011;7090;49.436;8.490;2024-01-27T09:48:39;8.23;;;7.73;;
14030;SDS011;7090;49.436;8.490;2024-01-27T09:51:08;12.20;;;7.63;;
14030;SDS011;7090;49.436;8.490;2024-01-27T09:53:34;7.43;;;7.13;;
14030;SDS011;7090;49.436;8.490;2024-01-27T09:56:01;6.50;;;6.30;;
14030;SDS011;7090;49.436;8.490;2024-01-27T09:58:28;9.10;;;6.67;;
14030;SDS011;7090;49.436;8.490;2024-01-27T10:00:56;7.20;;;6.70;;
14030;SDS011;7090;49.436;8.490;2024-01-27T10:03:26;7.90;;;7.40;;
14030;SDS011;7090;49.436;8.490;2024-01-27T10:05:53;9.20;;;8.40;;
14030;SDS011;7090;49.436;8.490;2024-01-27T10:08:23;8.53;;;7.87;;
14030;SDS011;7090;49.436;8.490;2024-01-27T10:10:55;6.67;;;6.27;;
14030;SDS011;7090;49.436;8.490;2024-01-27T10:13:21;8.60;;;7.90;;
14030;SDS011;7090;49.436;8.490;2024-01-27T10:18:30;8.70;;;8.10;;
14030;SDS011;7090;49.436;8.490;2024-01-27T10:20:56;9.10;;;8.23;;
14030;SDS011;7090;49.436;8.490;2024-01-27T10:23:22;9.23;;;8.37;;
14030;SDS011;7090;49.436;8.490;2024-01-27T10:25:49;9.17;;;8.30;;
14030;SDS011;7090;49.436;8.490;2024-01-27T10:28:15;6.03;;;5.73;;
14030;SDS011;7090;49.436;8.490;2024-01-27T10:30:40;7.57;;;7.07;;
14030;SDS011;7090;49.436;8.490;2024-01-27T10:33:10;5.37;;;5.17;;
14030;SDS011;7090;49.436;8.490;2024-01-27T10:35:39;6.27;;;5.97;;
14030;SDS011;7090;49.436;8.490;2024-01-27T10:38:08;6.97;;;6.57;;
14030;SDS011;7090;49.436;8.490;2024-01-27T10:40:35;5.73;;;5.33;;
14030;SDS011;7090;49.436;8.490;2024-01-27T10:43:06;6.77;;;6.43;;
14030;SDS011;7090;49.436;8.490;2024-01-27T10:45:34;7.10;;;6.80;;
14030;SDS011;7090;49.436;8.490;2024-01-27T10:48:05;7.40;;;6.80;;
14030;SDS011;7090;49.436;8.490;2024-01-27T10:50:36;7.10;;;6.70;;
14030;SDS011;7090;49.436;8.490;2024-01-27T10:53:03;10.53;;;6.80;;
14030;SDS011;7090;49.436;8.490;2024-01-27T10:55:33;6.90;;;6.60;;
14030;SDS011;7090;49.436;8.490;2024-01-27T10:58:02;8.90;;;8.20;;
14030;SDS011;7090;49.436;8.490;2024-01-27T11:00:28;9.65;;;8.90;;
14030;SDS011;7090;49.436;8.490;2024-01-27T11:03:01;7.87;;;7.07;;
14030;SDS011;7090;49.436;8.490;2024-01-27T11:05:27;7.20;;;6.90;;
14030;SDS011;7090;49.436;8.490;2024-01-27T11:07:57;7.63;;;7.33;;
14030;SDS011;7090;49.436;8.490;2024-01-27T11:10:24;7.03;;;6.73;;
14030;SDS011;7090;49.436;8.490;2024-01-27T11:12:51;7.93;;;7.53;;
14030;SDS011;7090;49.436;8.490;2024-01-27T11:15:19;7.10;;;6.80;;
14030;SDS011;7090;49.436;8.490;2024-01-27T11:17:46;8.83;;;8.03;;
14030;SDS011;7090;49.436;8.490;2024-01-27T11:20:11;7.77;;;7.47;;
14030;SDS011;7090;49.436;8.490;2024-01-27T11:22:38;9.23;;;8.40;;
14030;SDS011;7090;49.436;8.490;2024-01-27T11:25:12;7.72;;;7.43;;
14030;SDS011;7090;49.436;8.490;2024-01-27T11:27:43;8.53;;;8.10;;
14030;SDS011;7090;49.436;8.490;2024-01-27T11:30:26;7.40;;;7.10;;
14030;SDS011;7090;49.436;8.490;2024-01-27T11:32:53;8.63;;;8.03;;
14030;SDS011;7090;49.436;8.490;2024-01-27T11:35:20;7.73;;;7.33;;
14030;SDS011;7090;49.436;8.490;2024-01-27T11:37:45;8.13;;;7.63;;
14030;SDS011;7090;49.436;8.490;2024-01-27T11:40:13;9.20;;;8.47;;
14030;SDS011;7090;49.436;8.490;2024-01-27T11:42:39;8.65;;;8.15;;
14030;SDS011;7090;49.436;8.490;2024-01-27T11:45:04;7.53;;;7.23;;
14030;SDS011;7090;49.436;8.490;2024-01-27T11:47:30;8.07;;;7.70;;
14030;SDS011;7090;49.436;8.490;2024-01-27T11:49:56;7.20;;;6.90;;
14030;SDS011;7090;49.436;8.490;2024-01-27T11:52:23;7.30;;;7.00;;
14030;SDS011;7090;49.436;8.490;2024-01-27T11:54:56;7.88;;;7.57;;
14030;SDS011;7090;49.436;8.490;2024-01-27T11:57:22;7.20;;;6.90;;
14030;SDS011;7090;49.436;8.490;2024-01-27T11:59:48;7.10;;;6.80;;
14030;SDS011;7090;49.436;8.490;2024-01-27T12:02:15;7.60;;;7.30;;
14030;SDS011;7090;49.436;8.490;2024-01-27T12:04:41;7.25;;;6.95;;
14030;SDS011;7090;49.436;8.490;2024-01-27T12:07:06;7.47;;;7.18;;
14030;SDS011;7090;49.436;8.490;2024-01-27T12:09:32;7.20;;;6.90;;
14030;SDS011;7090;49.436;8.490;2024-01-27T12:11:58;7.40;;;7.10;;
14030;SDS011;7090;49.436;8.490;2024-01-27T12:14:23;9.38;;;8.50;;
14030;SDS011;7090;49.436;8.490;2024-01-27T12:16:50;8.25;;;7.85;;
14030;SDS011;7090;49.436;8.490;2024-01-27T12:19:16;7.32;;;7.03;;
14030;SDS011;7090;49.436;8.490;2024-01-27T12:21:48;7.70;;;7.20;;
14030;SDS011;7090;49.436;8.490;2024-01-27T12:24:17;9.13;;;8.17;;
14030;SDS011;7090;49.436;8.490;2024-01-27T12:26:45;7.60;;;7.30;;
14030;SDS011;7090;49.436;8.490;2024-01-27T12:29:11;7.40;;;7.10;;
14030;SDS011;7090;49.436;8.490;2024-01-27T12:31:37;7.65;;;7.35;;
14030;SDS011;7090;49.436;8.490;2024-01-27T12:34:03;7.83;;;7.30;;
14030;SDS011;7090;49.436;8.490;2024-01-27T12:36:28;7.30;;;7.00;;
14030;SDS011;7090;49.436;8.490;2024-01-27T12:38:55;7.60;;;7.30;;
14030;SDS011;7090;49.436;8.490;2024-01-27T12:41:26;13.33;;;8.97;;
14030;SDS011;7090;49.436;8.490;2024-01-27T12:43:53;8.23;;;7.83;;
14030;SDS011;7090;49.436;8.490;2024-01-27T12:46:19;7.60;;;7.30;;
14030;SDS011;7090;49.436;8.490;2024-01-27T12:48:45;8.53;;;7.93;;
14030;SDS011;7090;49.436;8.490;2024-01-27T12:51:11;8.50;;;8.00;;
14030;SDS011;7090;49.436;8.490;2024-01-27T12:53:40;9.35;;;8.63;;
14030;SDS011;7090;49.436;8.490;2024-01-27T12:56:08;9.00;;;8.37;;
14030;SDS011;7090;49.436;8.490;2024-01-27T12:58:35;8.00;;;7.70;;
14030;SDS011;7090;49.436;8.490;2024-01-27T13:01:00;7.70;;;7.37;;
14030;SDS011;7090;49.436;8.490;2024-01-27T13:03:26;8.07;;;7.43;;
14030;SDS011;7090;49.436;8.490;2024-01-27T13:05:53;7.63;;;7.33;;
14030;SDS011;7090;49.436;8.490;2024-01-27T13:08:19;7.40;;;7.10;;
14030;SDS011;7090;49.436;8.490;2024-01-27T13:10:45;15.07;;;8.27;;
14030;SDS011;7090;49.436;8.490;2024-01-27T13:13:10;7.50;;;7.20;;
14030;SDS011;7090;49.436;8.490;2024-01-27T13:15:36;8.37;;;7.77;;
14030;SDS011;7090;49.436;8.490;2024-01-27T13:18:01;7.50;;;7.20;;
14030;SDS011;7090;49.436;8.490;2024-01-27T13:20:27;8.20;;;7.60;;
14030;SDS011;7090;49.436;8.490;2024-01-27T13:22:53;7.40;;;7.10;;
14030;SDS011;7090;49.436;8.490;2024-01-27T13:25:18;8.50;;;7.70;;
14030;SDS011;7090;49.436;8.490;2024-01-27T13:27:44;7.68;;;7.30;;
14030;SDS011;7090;49.436;8.490;2024-01-27T13:30:11;7.88;;;7.50;;
14030;SDS011;7090;49.436;8.490;2024-01-27T13:32:37;7.63;;;7.22;;
14030;SDS011;7090;49.436;8.490;2024-01-27T13:35:03;7.40;;;7.10;;
14030;SDS011;7090;49.436;8.490;2024-01-27T13:37:29;7.43;;;7.13;;
14030;SDS011;7090;49.436;8.490;2024-01-27T13:39:58;7.50;;;7.20;;
14030;SDS011;7090;49.436;8.490;2024-01-27T13:42:28;9.38;;;8.77;;
14030;SDS011;7090;49.436;8.490;2024-01-27T13:44:54;8.97;;;8.47;;
14030;SDS011;7090;49.436;8.490;2024-01-27T13:47:19;8.50;;;8.00;;
14030;SDS011;7090;49.436;8.490;2024-01-27T13:49:45;7.97;;;7.68;;
14030;SDS011;7090;49.436;8.490;2024-01-27T13:52:10;7.90;;;7.60;;
14030;SDS011;7090;49.436;8.490;2024-01-27T13:54:36;8.35;;;8.05;;
14030;SDS011;7090;49.436;8.490;2024-01-27T13:57:02;8.20;;;7.80;;
14030;SDS011;7090;49.436;8.490;2024-01-27T13:59:28;8.40;;;8.00;;
14030;SDS011;7090;49.436;8.490;2024-01-27T14:01:54;8.38;;;7.97;;
14030;SDS011;7090;49.436;8.490;2024-01-27T14:04:22;8.07;;;7.78;;
14030;SDS011;7090;49.436;8.490;2024-01-27T14:06:49;8.20;;;7.90;;
14030;SDS011;7090;49.436;8.490;2024-01-27T14:09:15;7.90;;;7.60;;
14030;SDS011;7090;49.436;8.490;2024-01-27T14:11:41;7.93;;;7.63;;
14030;SDS011;7090;49.436;8.490;2024-01-27T14:14:07;8.43;;;8.07;;
14030;SDS011;7090;49.436;8.490;2024-01-27T14:16:32;7.82;;;7.53;;
14030;SDS011;7090;49.436;8.490;2024-01-27T14:18:58;8.53;;;8.10;;
14030;SDS011;7090;49.436;8.490;2024-01-27T14:21:24;9.67;;;8.77;;
14030;SDS011;7090;49.436;8.490;2024-01-27T14:23:49;8.20;;;7.90;;
14030;SDS011;7090;49.436;8.490;2024-01-27T14:26:15;8.00;;;7.70;;
14030;SDS011;7090;49.436;8.490;2024-01-27T14:28:41;8.00;;;7.70;;
14030;SDS011;7090;49.436;8.490;2024-01-27T14:31:07;8.40;;;8.00;;
14030;SDS011;7090;49.436;8.490;2024-01-27T14:33:33;9.30;;;8.80;;
14030;SDS011;7090;49.436;8.490;2024-01-27T14:35:58;8.47;;;8.17;;
14030;SDS011;7090;49.436;8.490;2024-01-27T14:38:24;8.77;;;8.37;;
14030;SDS011;7090;49.436;8.490;2024-01-27T14:40:50;9.13;;;8.63;;
14030;SDS011;7090;49.436;8.490;2024-01-27T14:43:16;8.30;;;8.00;;
14030;SDS011;7090;49.436;8.490;2024-01-27T14:45:46;8.50;;;8.20;;
14030;SDS011;7090;49.436;8.490;2024-01-27T14:48:11;8.50;;;8.20;;